createdAt,value
2023-04-10T00:00:31.821Z,92.590332
2023-04-10T00:01:41.590Z,92.590332
2023-04-10T00:02:49.310Z,92.590332
2023-04-10T00:03:57.103Z,92.694092
2023-04-10T00:05:06.663Z,92.694092
2023-04-10T00:06:16.147Z,92.590332
2023-04-10T00:07:25.784Z,92.382812
2023-04-10T00:08:34.414Z,92.242432
2023-04-10T00:09:43.065Z,92.138672
2023-04-10T00:10:51.788Z,91.827393
2023-04-10T00:12:00.451Z,91.827393
2023-04-10T00:13:10.094Z,91.723633
2023-04-10T00:14:18.735Z,91.516113
2023-04-10T00:15:27.410Z,91.516113
2023-04-10T00:16:37.103Z,91.308594
2023-04-10T00:17:46.737Z,91.204834
2023-04-10T00:18:54.372Z,90.789795
2023-04-10T00:20:03.024Z,90.374756
2023-04-10T00:21:12.757Z,90.374756
2023-04-10T00:22:22.355Z,90.826416
2023-04-10T00:23:31.015Z,90.930176
2023-04-10T00:24:40.661Z,90.930176
2023-04-10T00:25:49.331Z,90.618896
2023-04-10T00:26:58.975Z,90.203857
2023-04-10T00:28:06.659Z,90.142822
2023-04-10T00:29:14.306Z,90.142822
2023-04-10T00:30:22.968Z,90.246582
2023-04-10T00:31:31.656Z,90.600586
2023-04-10T00:32:41.415Z,91.119385
2023-04-10T00:33:50.143Z,91.430664
2023-04-10T00:34:58.765Z,91.638184
2023-04-10T00:36:08.443Z,91.949463
2023-04-10T00:37:17.125Z,92.053223
2023-04-10T00:38:24.758Z,92.095947
2023-04-10T00:39:34.407Z,92.407227
2023-04-10T00:40:44.084Z,92.510986
2023-04-10T00:41:52.750Z,92.822266
2023-04-10T00:43:02.445Z,93.029785
2023-04-10T00:44:11.077Z,93.139648
2023-04-10T00:45:20.725Z,93.139648
2023-04-10T00:46:29.527Z,93.347168
2023-04-10T00:47:38.108Z,93.450928
2023-04-10T00:48:47.759Z,93.450928
2023-04-10T00:49:57.413Z,93.554688
2023-04-10T00:51:06.098Z,93.450928
2023-04-10T00:52:15.743Z,93.347168
2023-04-10T00:53:24.421Z,93.347168
2023-04-10T00:54:34.095Z,93.139648
2023-04-10T00:55:41.783Z,92.822266
2023-04-10T00:56:49.435Z,92.510986
2023-04-10T00:57:59.106Z,92.407227
2023-04-10T00:59:07.783Z,92.510986
2023-04-10T01:00:15.393Z,92.510986
2023-04-10T01:01:24.159Z,92.449951
2023-04-10T01:02:32.868Z,92.657471
2023-04-10T01:03:42.538Z,92.86499
2023-04-10T01:04:50.111Z,92.96875
2023-04-10T01:05:56.764Z,92.96875
2023-04-10T01:07:06.432Z,92.86499
2023-04-10T01:08:15.091Z,92.96875
2023-04-10T01:09:24.780Z,93.07251
2023-04-10T01:10:34.432Z,93.389893
2023-04-10T01:11:43.103Z,93.493652
2023-04-10T01:12:52.786Z,93.597412
2023-04-10T01:14:00.434Z,93.597412
2023-04-10T01:15:09.153Z,93.701172
2023-04-10T01:16:18.808Z,93.701172
2023-04-10T01:17:27.518Z,93.701172
2023-04-10T01:18:36.142Z,93.701172
2023-04-10T01:19:44.787Z,93.597412
2023-04-10T01:20:54.454Z,93.597412
2023-04-10T01:22:04.113Z,93.493652
2023-04-10T01:23:12.812Z,93.493652
2023-04-10T01:24:20.537Z,93.493652
2023-04-10T01:25:30.290Z,93.493652
2023-04-10T01:26:39.898Z,93.536377
2023-04-10T01:27:48.559Z,93.640137
2023-04-10T01:28:57.213Z,93.640137
2023-04-10T01:30:05.874Z,93.743896
2023-04-10T01:31:15.603Z,93.743896
2023-04-10T01:32:23.218Z,93.640137
2023-04-10T01:33:30.857Z,93.536377
2023-04-10T01:34:40.548Z,93.328857
2023-04-10T01:35:49.224Z,93.225098
2023-04-10T01:36:58.865Z,93.225098
2023-04-10T01:38:08.520Z,93.225098
2023-04-10T01:39:18.168Z,93.328857
2023-04-10T01:40:27.817Z,93.328857
2023-04-10T01:41:36.510Z,93.328857
2023-04-10T01:42:45.164Z,93.328857
2023-04-10T01:43:54.882Z,93.536377
2023-04-10T01:45:03.493Z,93.432617
2023-04-10T01:46:14.156Z,93.225098
2023-04-10T01:47:23.854Z,93.115234
2023-04-10T01:48:32.478Z,93.225098
2023-04-10T01:49:42.142Z,93.267822
2023-04-10T01:50:51.860Z,93.371582
2023-04-10T01:52:01.518Z,93.371582
2023-04-10T01:53:11.188Z,93.267822
2023-04-10T01:54:20.824Z,93.267822
2023-04-10T01:55:29.482Z,93.371582
2023-04-10T01:56:39.218Z,93.518066
2023-04-10T01:57:48.866Z,93.414307
2023-04-10T01:58:58.560Z,93.829346
2023-04-10T02:00:07.274Z,94.140625
2023-04-10T02:01:26.598Z,94.140625
2023-04-10T02:02:27.609Z,94.244385
2023-04-10T02:03:37.437Z,94.244385
2023-04-10T02:04:45.926Z,94.244385
2023-04-10T02:05:55.627Z,94.244385
2023-04-10T02:07:04.337Z,94.348145
2023-04-10T02:08:12.993Z,94.348145
2023-04-10T02:09:22.783Z,94.30542
2023-04-10T02:10:31.438Z,94.348145
2023-04-10T02:11:40.127Z,94.348145
2023-04-10T02:12:48.813Z,94.244385
2023-04-10T02:13:57.464Z,94.036865
2023-04-10T02:15:07.148Z,94.140625
2023-04-10T02:16:15.845Z,94.140625
2023-04-10T02:17:25.536Z,93.829346
2023-04-10T02:18:35.175Z,93.621826
2023-04-10T02:19:43.833Z,93.829346
2023-04-10T02:20:53.538Z,93.621826
2023-04-10T02:22:02.332Z,93.414307
2023-04-10T02:23:12.019Z,93.518066
2023-04-10T02:24:21.688Z,93.768311
2023-04-10T02:25:30.364Z,94.287109
2023-04-10T02:26:39.028Z,94.598389
2023-04-10T02:27:48.711Z,94.702148
2023-04-10T02:28:57.391Z,94.659424
2023-04-10T02:30:06.021Z,94.555664
2023-04-10T02:31:14.731Z,94.287109
2023-04-10T02:32:23.401Z,93.97583
2023-04-10T02:33:32.084Z,93.768311
2023-04-10T02:34:40.765Z,93.768311
2023-04-10T02:35:50.484Z,93.560791
2023-04-10T02:37:00.197Z,93.664551
2023-04-10T02:38:09.822Z,93.768311
2023-04-10T02:39:19.494Z,93.560791
2023-04-10T02:40:28.150Z,93.395996
2023-04-10T02:41:37.879Z,93.395996
2023-04-10T02:42:47.558Z,93.286133
2023-04-10T02:43:55.308Z,93.286133
2023-04-10T02:45:02.903Z,93.395996
2023-04-10T02:46:12.571Z,93.603516
2023-04-10T02:47:21.260Z,93.811035
2023-04-10T02:48:29.948Z,94.122314
2023-04-10T02:49:38.591Z,94.537354
2023-04-10T02:50:47.261Z,94.854736
2023-04-10T02:51:57.073Z,94.958496
2023-04-10T02:53:05.774Z,95.062256
2023-04-10T02:54:15.482Z,95.062256
2023-04-10T02:55:24.163Z,94.958496
2023-04-10T02:56:32.884Z,94.750977
2023-04-10T02:57:41.552Z,94.641113
2023-04-10T02:58:51.208Z,94.433594
2023-04-10T02:59:59.861Z,94.329834
2023-04-10T03:01:09.593Z,94.329834
2023-04-10T03:02:18.316Z,94.433594
2023-04-10T03:03:26.978Z,94.641113
2023-04-10T03:04:36.604Z,94.750977
2023-04-10T03:05:46.231Z,94.958496
2023-04-10T03:06:56.102Z,94.958496
2023-04-10T03:08:04.768Z,94.854736
2023-04-10T03:09:14.413Z,94.854736
2023-04-10T03:10:24.115Z,94.854736
2023-04-10T03:11:31.829Z,94.854736
2023-04-10T03:12:40.464Z,94.750977
2023-04-10T03:13:50.126Z,94.750977
2023-04-10T03:14:58.777Z,94.750977
2023-04-10T03:16:08.491Z,94.897461
2023-04-10T03:17:17.146Z,95.10498
2023-04-10T03:18:25.793Z,95.10498
2023-04-10T03:19:35.456Z,95.10498
2023-04-10T03:20:44.545Z,95.10498
2023-04-10T03:21:51.770Z,95.001221
2023-04-10T03:23:01.430Z,95.10498
2023-04-10T03:24:11.115Z,95.10498
2023-04-10T03:25:21.882Z,95.001221
2023-04-10T03:26:31.493Z,95.001221
2023-04-10T03:27:41.210Z,95.001221
2023-04-10T03:28:49.866Z,94.897461
2023-04-10T03:29:58.533Z,94.793701
2023-04-10T03:31:07.235Z,94.793701
2023-04-10T03:32:16.900Z,94.689941
2023-04-10T03:33:25.612Z,94.580078
2023-04-10T03:34:34.250Z,94.580078
2023-04-10T03:35:42.955Z,94.580078
2023-04-10T03:36:51.582Z,94.580078
2023-04-10T03:38:01.280Z,94.580078
2023-04-10T03:39:09.963Z,94.732666
2023-04-10T03:40:18.615Z,94.836426
2023-04-10T03:41:28.283Z,95.043945
2023-04-10T03:42:38.005Z,95.147705
2023-04-10T03:43:46.699Z,95.251465
2023-04-10T03:44:56.375Z,95.355225
2023-04-10T03:46:06.036Z,95.355225
2023-04-10T03:47:15.756Z,95.355225
2023-04-10T03:48:23.435Z,95.355225
2023-04-10T03:49:32.122Z,95.355225
2023-04-10T03:50:41.773Z,95.666504
2023-04-10T03:51:50.448Z,95.880127
2023-04-10T03:53:00.131Z,95.880127
2023-04-10T03:54:09.849Z,95.776367
2023-04-10T03:55:18.481Z,95.776367
2023-04-10T03:56:28.180Z,95.776367
2023-04-10T03:57:37.865Z,95.776367
2023-04-10T03:58:45.532Z,95.562744
2023-04-10T03:59:54.244Z,95.562744
2023-04-10T04:01:03.901Z,95.666504
2023-04-10T04:02:13.649Z,95.52002
2023-04-10T04:03:23.447Z,95.355225
2023-04-10T04:04:31.105Z,95.458984
2023-04-10T04:05:39.776Z,95.562744
2023-04-10T04:06:49.430Z,95.776367
2023-04-10T04:07:59.181Z,95.880127
2023-04-10T04:09:08.881Z,95.880127
2023-04-10T04:10:17.525Z,95.983887
2023-04-10T04:11:27.220Z,95.983887
2023-04-10T04:12:36.916Z,95.941162
2023-04-10T04:13:45.645Z,95.880127
2023-04-10T04:14:54.317Z,96.087646
2023-04-10T04:16:04.026Z,95.983887
2023-04-10T04:17:12.826Z,95.983887
2023-04-10T04:18:21.568Z,95.983887
2023-04-10T04:19:30.244Z,96.295166
2023-04-10T04:20:38.971Z,96.398926
2023-04-10T04:21:48.645Z,96.502686
2023-04-10T04:22:58.361Z,96.606445
2023-04-10T04:24:06.057Z,96.820068
2023-04-10T04:25:16.703Z,96.923828
2023-04-10T04:26:25.419Z,96.923828
2023-04-10T04:27:34.132Z,96.77124
2023-04-10T04:28:42.812Z,96.710205
2023-04-10T04:29:52.550Z,96.563721
2023-04-10T04:31:02.274Z,96.606445
2023-04-10T04:32:11.947Z,96.606445
2023-04-10T04:33:20.646Z,96.459961
2023-04-10T04:34:30.341Z,96.295166
2023-04-10T04:35:39.082Z,96.398926
2023-04-10T04:36:47.712Z,96.295166
2023-04-10T04:37:56.507Z,96.398926
2023-04-10T04:39:05.144Z,96.502686
2023-04-10T04:40:15.791Z,96.606445
2023-04-10T04:41:24.455Z,96.502686
2023-04-10T04:42:31.109Z,96.502686
2023-04-10T04:43:40.823Z,96.502686
2023-04-10T04:44:49.490Z,96.502686
2023-04-10T04:45:58.241Z,96.295166
2023-04-10T04:47:06.884Z,96.398926
2023-04-10T04:48:16.579Z,96.398926
2023-04-10T04:49:26.273Z,96.191406
2023-04-10T04:50:33.913Z,96.398926
2023-04-10T04:51:43.582Z,96.606445
2023-04-10T04:52:53.309Z,96.820068
2023-04-10T04:54:02.056Z,96.820068
2023-04-10T04:55:11.857Z,97.027588
2023-04-10T04:56:20.509Z,96.923828
2023-04-10T04:57:30.212Z,97.131348
2023-04-10T04:58:39.944Z,97.027588
2023-04-10T04:59:49.617Z,97.131348
2023-04-10T05:00:57.345Z,97.235107
2023-04-10T05:02:07.091Z,97.442627
2023-04-10T05:03:16.898Z,97.442627
2023-04-10T05:04:25.487Z,97.399902
2023-04-10T05:05:34.249Z,97.296143
2023-04-10T05:06:42.883Z,97.875977
2023-04-10T05:07:51.566Z,97.833252
2023-04-10T05:09:00.371Z,97.619629
2023-04-10T05:10:08.017Z,97.20459
2023-04-10T05:11:17.712Z,96.99707
2023-04-10T05:12:26.374Z,96.374512
2023-04-10T05:13:35.097Z,95.849609
2023-04-10T05:14:43.752Z,95.788574
2023-04-10T05:15:52.483Z,95.892334
2023-04-10T05:17:03.591Z,95.996094
2023-04-10T05:18:10.868Z,96.209717
2023-04-10T05:19:19.471Z,96.160889
2023-04-10T05:20:29.147Z,96.478271
2023-04-10T05:21:38.815Z,96.118164
2023-04-10T05:22:48.543Z,95.806885
2023-04-10T05:23:57.260Z,95.391846
2023-04-10T05:25:06.916Z,95.391846
2023-04-10T05:26:16.615Z,95.349121
2023-04-10T05:27:26.248Z,95.031738
2023-04-10T05:28:34.950Z,94.720459
2023-04-10T05:29:44.608Z,94.616699
2023-04-10T05:30:54.354Z,94.40918
2023-04-10T05:32:02.956Z,94.40918
2023-04-10T05:33:11.632Z,94.30542
2023-04-10T05:34:20.292Z,94.30542
2023-04-10T05:35:29.965Z,94.40918
2023-04-10T05:36:38.622Z,94.40918
2023-04-10T05:37:46.285Z,94.20166
2023-04-10T05:38:56.295Z,94.512939
2023-04-10T05:40:05.677Z,94.470215
2023-04-10T05:41:15.333Z,94.262695
2023-04-10T05:42:24.050Z,94.262695
2023-04-10T05:43:32.698Z,94.262695
2023-04-10T05:44:42.367Z,94.158936
2023-04-10T05:45:50.061Z,93.951416
2023-04-10T05:46:58.758Z,93.847656
2023-04-10T05:48:08.429Z,94.055176
2023-04-10T05:49:17.098Z,94.262695
2023-04-10T05:50:25.788Z,94.262695
2023-04-10T05:51:35.450Z,94.32373
2023-04-10T05:52:45.149Z,94.219971
2023-04-10T05:53:54.832Z,93.908691
2023-04-10T05:55:02.478Z,94.012451
2023-04-10T05:56:11.175Z,93.908691
2023-04-10T05:57:20.817Z,93.804932
2023-04-10T05:58:30.525Z,93.804932
2023-04-10T05:59:40.179Z,93.865967
2023-04-10T06:00:48.861Z,93.969727
2023-04-10T06:01:57.535Z,94.073486
2023-04-10T06:03:05.319Z,93.823242
2023-04-10T06:04:15.162Z,93.823242
2023-04-10T06:05:23.732Z,93.615723
2023-04-10T06:06:32.356Z,93.408203
2023-04-10T06:07:41.056Z,93.261719
2023-04-10T06:08:50.755Z,93.054199
2023-04-10T06:09:59.428Z,93.261719
2023-04-10T06:11:07.089Z,93.365479
2023-04-10T06:12:14.757Z,93.469238
2023-04-10T06:13:24.460Z,93.469238
2023-04-10T06:14:33.197Z,93.218994
2023-04-10T06:15:42.920Z,92.96875
2023-04-10T06:16:51.576Z,92.553711
2023-04-10T06:18:01.299Z,92.449951
2023-04-10T06:19:09.973Z,92.407227
2023-04-10T06:20:17.744Z,92.095947
2023-04-10T06:21:25.390Z,91.784668
2023-04-10T06:22:35.204Z,91.784668
2023-04-10T06:23:44.743Z,91.638184
2023-04-10T06:24:53.480Z,91.430664
2023-04-10T06:26:02.200Z,91.638184
2023-04-10T06:27:11.902Z,91.430664
2023-04-10T06:28:21.602Z,91.28418
2023-04-10T06:29:31.321Z,91.18042
2023-04-10T06:30:40.011Z,90.765381
2023-04-10T06:31:49.675Z,90.454102
2023-04-10T06:32:58.406Z,90.100098
2023-04-10T06:34:08.032Z,89.996338
2023-04-10T06:35:16.866Z,89.752197
2023-04-10T06:36:26.480Z,89.337158
2023-04-10T06:37:35.271Z,89.086914
2023-04-10T06:38:43.013Z,88.671875
2023-04-10T06:39:51.695Z,88.15918
2023-04-10T06:41:01.394Z,88.012695
2023-04-10T06:42:10.140Z,87.908936
2023-04-10T06:43:19.764Z,87.353516
2023-04-10T06:44:29.485Z,86.834717
2023-04-10T06:45:38.152Z,86.694336
2023-04-10T06:46:47.903Z,86.383057
2023-04-10T06:47:56.503Z,85.827637
2023-04-10T06:49:04.199Z,85.888672
2023-04-10T06:50:13.953Z,85.540771
2023-04-10T06:51:22.580Z,84.301758
2023-04-10T06:52:31.260Z,84.057617
2023-04-10T06:53:40.958Z,83.502197
2023-04-10T06:54:49.693Z,82.781982
2023-04-10T06:56:00.899Z,81.402588
2023-04-10T06:57:09.027Z,80.438232
2023-04-10T06:58:17.677Z,80.194092
2023-04-10T06:59:27.425Z,79.644775
2023-04-10T07:00:36.087Z,79.089355
2023-04-10T07:01:44.721Z,78.436279
2023-04-10T07:02:53.496Z,77.679443
2023-04-10T07:04:02.127Z,77.441406
2023-04-10T07:05:11.766Z,76.416016
2023-04-10T07:06:21.422Z,76.483154
2023-04-10T07:07:29.088Z,75.762939
2023-04-10T07:08:38.784Z,74.700928
2023-04-10T07:09:47.452Z,73.571777
2023-04-10T07:10:58.510Z,72.851562
2023-04-10T07:12:06.806Z,72.033691
2023-04-10T07:13:16.440Z,72.753906
2023-04-10T07:14:26.122Z,73.266602
2023-04-10T07:15:34.941Z,73.022461
2023-04-10T07:16:42.615Z,72.613525
2023-04-10T07:17:52.293Z,72.174072
2023-04-10T07:19:02.952Z,71.417236
2023-04-10T07:20:11.598Z,70.806885
2023-04-10T07:21:21.289Z,69.610596
2023-04-10T07:22:30.942Z,70.806885
2023-04-10T07:23:40.615Z,71.008301
2023-04-10T07:24:48.294Z,70.257568
2023-04-10T07:25:55.949Z,70.227051
2023-04-10T07:27:04.604Z,69.787598
2023-04-10T07:28:14.259Z,69.244385
2023-04-10T07:29:23.954Z,67.706299
2023-04-10T07:30:32.640Z,67.913818
2023-04-10T07:31:42.432Z,66.96167
2023-04-10T07:32:52.131Z,67.06543
2023-04-10T07:33:58.761Z,67.163086
2023-04-10T07:35:08.417Z,67.102051
2023-04-10T07:36:18.144Z,66.052246
2023-04-10T07:37:27.795Z,64.825439
2023-04-10T07:38:36.454Z,64.72168
2023-04-10T07:39:46.108Z,64.172363
2023-04-10T07:40:55.812Z,64.709473
2023-04-10T07:42:05.480Z,65.557861
2023-04-10T07:43:13.186Z,65.692139
2023-04-10T07:44:21.843Z,66.61377
2023-04-10T07:45:31.583Z,66.40625
2023-04-10T07:46:40.190Z,66.247559
2023-04-10T07:47:49.998Z,65.118408
2023-04-10T07:48:59.553Z,64.709473
2023-04-10T07:50:08.231Z,65.527344
2023-04-10T07:51:17.965Z,64.678955
2023-04-10T07:52:27.613Z,64.373779
2023-04-10T07:53:36.309Z,64.648438
2023-04-10T07:54:45.994Z,63.525391
2023-04-10T07:55:54.669Z,63.830566
2023-04-10T07:57:03.410Z,63.220215
2023-04-10T07:58:12.076Z,63.62915
2023-04-10T07:59:21.730Z,64.416504
2023-04-10T08:00:30.429Z,63.702393
2023-04-10T08:01:40.123Z,63.775635
2023-04-10T08:02:49.844Z,63.671875
2023-04-10T08:04:01.040Z,63.262939
2023-04-10T08:05:10.671Z,63.568115
2023-04-10T08:06:20.485Z,63.439941
2023-04-10T08:07:29.104Z,63.201904
2023-04-10T08:08:38.749Z,63.146973
2023-04-10T08:09:47.411Z,62.70752
2023-04-10T08:10:57.116Z,61.529541
2023-04-10T08:12:06.767Z,59.802246
2023-04-10T08:13:16.453Z,59.265137
2023-04-10T08:14:26.130Z,58.654785
2023-04-10T08:15:34.809Z,59.368896
2023-04-10T08:16:44.706Z,59.338379
2023-04-10T08:17:52.363Z,58.325195
2023-04-10T08:19:00.091Z,58.728027
2023-04-10T08:20:09.831Z,58.398438
2023-04-10T08:21:18.513Z,57.714844
2023-04-10T08:22:26.210Z,57.537842
2023-04-10T08:23:35.854Z,57.159424
2023-04-10T08:24:44.519Z,59.552002
2023-04-10T08:25:54.207Z,60.412598
2023-04-10T08:27:02.933Z,58.453369
2023-04-10T08:28:10.576Z,58.325195
2023-04-10T08:29:20.255Z,56.854248
2023-04-10T08:30:29.036Z,58.959961
2023-04-10T08:31:38.645Z,58.197021
2023-04-10T08:32:48.321Z,56.848145
2023-04-10T08:33:58.490Z,56.213379
2023-04-10T08:35:07.733Z,56.695557
2023-04-10T08:36:18.338Z,55.169678
2023-04-10T08:37:25.233Z,55.706787
2023-04-10T08:38:34.940Z,54.89502
2023-04-10T08:39:43.598Z,56.469727
2023-04-10T08:40:52.276Z,57.952881
2023-04-10T08:42:00.992Z,58.666992
2023-04-10T08:43:10.669Z,58.868408
2023-04-10T08:44:20.350Z,58.666992
2023-04-10T08:45:29.050Z,59.350586
2023-04-10T08:46:36.759Z,59.161377
2023-04-10T08:47:46.423Z,58.197021
2023-04-10T08:48:55.216Z,56.82373
2023-04-10T08:50:05.095Z,56.591797
2023-04-10T08:51:18.640Z,55.957031
2023-04-10T08:52:22.535Z,56.262207
2023-04-10T08:53:32.381Z,54.815674
2023-04-10T08:54:40.244Z,53.546143
2023-04-10T08:55:48.912Z,54.992676
2023-04-10T08:56:58.656Z,55.401611
2023-04-10T08:58:07.396Z,55.169678
2023-04-10T08:59:16.093Z,55.145264
2023-04-10T09:00:24.766Z,55.01709
2023-04-10T09:01:33.477Z,54.589844
2023-04-10T09:02:43.274Z,54.284668
2023-04-10T09:03:51.822Z,53.448486
2023-04-10T09:05:01.458Z,53.448486
2023-04-10T09:06:11.120Z,52.386475
2023-04-10T09:07:20.823Z,53.826904
2023-04-10T09:08:29.537Z,55.883789
2023-04-10T09:09:38.162Z,56.011963
2023-04-10T09:10:46.860Z,56.420898
2023-04-10T09:11:56.497Z,56.976318
2023-04-10T09:13:05.152Z,55.297852
2023-04-10T09:14:13.790Z,54.437256
2023-04-10T09:15:23.445Z,54.412842
2023-04-10T09:16:32.225Z,53.271484
2023-04-10T09:17:41.936Z,52.563477
2023-04-10T09:18:50.564Z,52.032471
2023-04-10T09:20:00.236Z,52.307129
2023-04-10T09:21:09.914Z,52.563477
2023-04-10T09:22:18.684Z,52.233887
2023-04-10T09:23:27.351Z,51.202393
2023-04-10T09:24:37.028Z,49.786377
2023-04-10T09:25:44.660Z,49.835205
2023-04-10T09:26:54.381Z,51.116943
2023-04-10T09:28:04.011Z,51.806641
2023-04-10T09:29:12.661Z,50.946045
2023-04-10T09:30:21.390Z,49.835205
2023-04-10T09:31:29.070Z,49.304199
2023-04-10T09:32:37.724Z,48.980713
2023-04-10T09:33:47.411Z,48.779297
2023-04-10T09:34:56.093Z,49.560547
2023-04-10T09:36:03.800Z,48.504639
2023-04-10T09:37:13.463Z,47.77832
2023-04-10T09:38:22.155Z,48.101807
2023-04-10T09:39:31.800Z,47.521973
2023-04-10T09:40:40.513Z,48.553467
2023-04-10T09:41:48.215Z,48.443604
2023-04-10T09:42:57.921Z,49.859619
2023-04-10T09:44:06.591Z,50.213623
2023-04-10T09:45:16.229Z,49.664307
2023-04-10T09:46:24.899Z,48.809814
2023-04-10T09:47:33.683Z,47.924805
2023-04-10T09:48:43.281Z,48.730469
2023-04-10T09:49:52.034Z,48.504639
2023-04-10T09:51:00.728Z,48.486328
2023-04-10T09:52:10.424Z,47.192383
2023-04-10T09:53:20.143Z,47.192383
2023-04-10T09:54:29.849Z,47.271729
2023-04-10T09:55:38.539Z,45.76416
2023-04-10T09:56:47.258Z,46.850586
2023-04-10T09:57:55.923Z,47.052002
2023-04-10T09:59:05.619Z,46.124268
2023-04-10T10:00:14.369Z,45.64209
2023-04-10T10:01:24.064Z,45.739746
2023-04-10T10:02:32.847Z,45.843506
2023-04-10T10:03:40.443Z,45.941162
2023-04-10T10:04:50.447Z,46.54541
2023-04-10T10:05:58.066Z,45.843506
2023-04-10T10:07:06.773Z,45.965576
2023-04-10T10:08:16.528Z,47.253418
2023-04-10T10:09:25.187Z,47.53418
2023-04-10T10:10:34.972Z,45.19043
2023-04-10T10:11:42.625Z,45.977783
2023-04-10T10:12:51.338Z,44.567871
2023-04-10T10:14:01.007Z,44.085693
2023-04-10T10:15:09.696Z,44.775391
2023-04-10T10:16:17.384Z,46.19751
2023-04-10T10:17:27.178Z,48.217773
2023-04-10T10:18:36.743Z,49.810791
2023-04-10T10:19:45.430Z,47.540283
2023-04-10T10:20:54.146Z,46.881104
2023-04-10T10:22:03.869Z,47.53418
2023-04-10T10:23:13.550Z,47.833252
2023-04-10T10:24:23.203Z,48.901367
2023-04-10T10:25:31.878Z,47.741699
2023-04-10T10:26:41.523Z,47.601318
2023-04-10T10:27:51.191Z,46.063232
2023-04-10T10:29:00.854Z,45.64209
2023-04-10T10:30:20.663Z,45.117188
2023-04-10T10:31:20.255Z,43.707275
2023-04-10T10:32:29.939Z,44.42749
2023-04-10T10:33:38.598Z,44.750977
2023-04-10T10:34:48.255Z,45.336914
2023-04-10T10:35:57.906Z,44.549561
2023-04-10T10:37:06.546Z,46.54541
2023-04-10T10:38:16.229Z,45.214844
2023-04-10T10:39:24.907Z,44.268799
2023-04-10T10:40:34.594Z,43.841553
2023-04-10T10:41:44.289Z,43.54248
2023-04-10T10:42:53.974Z,42.938232
2023-04-10T10:44:01.628Z,43.54248
2023-04-10T10:45:10.275Z,42.938232
2023-04-10T10:46:19.979Z,43.518066
2023-04-10T10:47:28.620Z,42.39502
2023-04-10T10:48:38.268Z,42.779541
2023-04-10T10:49:46.922Z,42.895508
2023-04-10T10:50:56.583Z,42.596436
2023-04-10T10:52:04.268Z,42.694092
2023-04-10T10:53:13.948Z,42.694092
2023-04-10T10:54:23.643Z,42.797852
2023-04-10T10:55:33.321Z,43.579102
2023-04-10T10:56:42.014Z,42.858887
2023-04-10T10:57:51.686Z,42.254639
2023-04-10T10:59:00.338Z,42.297363
2023-04-10T11:00:09.002Z,42.797852
2023-04-10T11:01:16.713Z,42.553711
2023-04-10T11:02:25.459Z,44.128418
2023-04-10T11:03:35.155Z,45.52002
2023-04-10T11:04:44.739Z,44.42749
2023-04-10T11:05:53.378Z,43.218994
2023-04-10T11:07:02.087Z,43.707275
2023-04-10T11:08:10.715Z,44.287109
2023-04-10T11:09:20.367Z,44.769287
2023-04-10T11:10:29.380Z,44.244385
2023-04-10T11:11:37.677Z,44.549561
2023-04-10T11:12:47.322Z,44.628906
2023-04-10T11:13:55.998Z,43.518066
2023-04-10T11:15:04.651Z,43.304443
2023-04-10T11:16:14.372Z,44.689941
2023-04-10T11:17:22.975Z,44.189453
2023-04-10T11:18:32.672Z,43.988037
2023-04-10T11:19:40.356Z,45.251465
2023-04-10T11:20:48.020Z,44.805908
2023-04-10T11:21:57.705Z,41.992188
2023-04-10T11:23:06.371Z,42.675781
2023-04-10T11:24:15.064Z,42.156982
2023-04-10T11:25:24.773Z,40.704346
2023-04-10T11:26:33.495Z,41.870117
2023-04-10T11:27:43.172Z,43.164062
2023-04-10T11:28:50.878Z,44.128418
2023-04-10T11:30:00.568Z,43.682861
2023-04-10T11:31:10.214Z,42.5354
2023-04-10T11:32:19.941Z,40.887451
2023-04-10T11:33:29.584Z,42.034912
2023-04-10T11:34:39.334Z,41.589355
2023-04-10T11:35:47.988Z,40.625
2023-04-10T11:36:57.624Z,41.088867
2023-04-10T11:38:06.279Z,40.167236
2023-04-10T11:39:14.980Z,40.368652
2023-04-10T11:40:24.657Z,40.325928
2023-04-10T11:41:33.308Z,39.324951
2023-04-10T11:42:42.089Z,38.989258
2023-04-10T11:43:50.799Z,37.683105
2023-04-10T11:44:59.462Z,39.007568
2023-04-10T11:46:09.286Z,38.665771
2023-04-10T11:47:17.920Z,37.646484
2023-04-10T11:48:25.592Z,38.311768
2023-04-10T11:49:34.271Z,37.097168
2023-04-10T11:50:42.941Z,37.493896
2023-04-10T11:51:51.658Z,36.694336
2023-04-10T11:53:01.317Z,36.474609
2023-04-10T11:54:11.034Z,36.49292
2023-04-10T11:55:19.720Z,37.176514
2023-04-10T11:56:29.536Z,36.938477
2023-04-10T11:57:39.183Z,36.322021
2023-04-10T11:58:47.884Z,36.590576
2023-04-10T11:59:56.617Z,35.5896
2023-04-10T12:01:05.264Z,35.510254
2023-04-10T12:02:13.964Z,35.528564
2023-04-10T12:03:22.644Z,35.412598
2023-04-10T12:04:30.434Z,35.125732
2023-04-10T12:05:39.938Z,36.981201
2023-04-10T12:06:48.586Z,38.806152
2023-04-10T12:07:58.277Z,38.323975
2023-04-10T12:09:07.934Z,39.227295
2023-04-10T12:10:16.591Z,37.62207
2023-04-10T12:11:26.365Z,37.634277
2023-04-10T12:12:34.014Z,38.122559
2023-04-10T12:13:41.705Z,38.201904
2023-04-10T12:14:51.374Z,38.848877
2023-04-10T12:16:01.040Z,38.549805
2023-04-10T12:17:10.686Z,37.683105
2023-04-10T12:18:19.370Z,39.587402
2023-04-10T12:19:28.071Z,38.848877
2023-04-10T12:20:37.762Z,36.395264
2023-04-10T12:21:46.452Z,36.859131
2023-04-10T12:22:56.058Z,36.340332
2023-04-10T12:24:05.806Z,36.108398
2023-04-10T12:25:14.429Z,36.755371
2023-04-10T12:26:24.081Z,34.979248
2023-04-10T12:27:33.786Z,35.626221
2023-04-10T12:28:42.452Z,34.82666
2023-04-10T12:29:52.133Z,34.344482
2023-04-10T12:31:00.863Z,35.058594
2023-04-10T12:32:09.513Z,35.461426
2023-04-10T12:33:19.201Z,36.071777
2023-04-10T12:34:27.918Z,35.772705
2023-04-10T12:35:37.607Z,34.796143
2023-04-10T12:36:46.249Z,35.211182
2023-04-10T12:37:55.908Z,36.071777
2023-04-10T12:39:05.674Z,34.49707
2023-04-10T12:40:15.346Z,35.028076
2023-04-10T12:41:24.056Z,35.174561
2023-04-10T12:42:33.988Z,34.332275
2023-04-10T12:43:43.645Z,34.527588
2023-04-10T12:44:51.353Z,33.850098
2023-04-10T12:46:00.235Z,34.362793
2023-04-10T12:47:09.798Z,34.326172
2023-04-10T12:48:19.506Z,35.72998
2023-04-10T12:49:27.194Z,36.712646
2023-04-10T12:50:36.873Z,36.846924
2023-04-10T12:51:46.546Z,37.799072
2023-04-10T12:52:56.243Z,38.970947
2023-04-10T12:54:05.946Z,38.433838
2023-04-10T12:55:15.673Z,35.760498
2023-04-10T12:56:25.358Z,36.224365
2023-04-10T12:57:35.002Z,35.577393
2023-04-10T12:58:42.695Z,34.863281
2023-04-10T12:59:51.479Z,33.746338
2023-04-10T13:01:01.134Z,34.265137
2023-04-10T13:02:09.874Z,34.460449
2023-04-10T13:03:19.599Z,33.764648
2023-04-10T13:04:28.306Z,33.996582
2023-04-10T13:05:36.825Z,35.540771
2023-04-10T13:06:46.492Z,36.474609
2023-04-10T13:07:54.149Z,37.078857
2023-04-10T13:09:01.886Z,35.876465
2023-04-10T13:10:11.554Z,34.82666